sensor_id;sensor_type;location;lat;lon;timestamp;temperature;humidity
67820;DHT22;54618;52.018;5.576;2024-02-26T00:01:27;5.70;87.40
67820;DHT22;54618;52.018;5.576;2024-02-26T00:03:53;5.70;86.80
67820;DHT22;54618;52.018;5.576;2024-02-26T00:06:19;5.70;86.80
67820;DHT22;54618;52.018;5.576;2024-02-26T00:08:45;5.70;87.10
67820;DHT22;54618;52.018;5.576;2024-02-26T00:11:10;5.60;86.80
67820;DHT22;54618;52.018;5.576;2024-02-26T00:13:36;5.70;86.90
67820;DHT22;54618;52.018;5.576;2024-02-26T00:16:03;5.60;87.00
67820;DHT22;54618;52.018;5.576;2024-02-26T00:18:29;5.70;87.00
67820;DHT22;54618;52.018;5.576;2024-02-26T00:20:55;5.60;86.90
67820;DHT22;54618;52.018;5.576;2024-02-26T00:23:20;5.70;86.90
67820;DHT22;54618;52.018;5.576;2024-02-26T00:25:46;5.60;86.80
67820;DHT22;54618;52.018;5.576;2024-02-26T00:28:13;5.60;87.20
67820;DHT22;54618;52.018;5.576;2024-02-26T00:30:39;5.60;87.20
67820;DHT22;54618;52.018;5.576;2024-02-26T00:33:04;5.60;86.90
67820;DHT22;54618;52.018;5.576;2024-02-26T00:35:30;5.60;86.70
67820;DHT22;54618;52.018;5.576;2024-02-26T00:37:58;5.60;86.80
67820;DHT22;54618;52.018;5.576;2024-02-26T00:40:24;5.60;87.00
67820;DHT22;54618;52.018;5.576;2024-02-26T00:42:49;5.60;87.00
67820;DHT22;54618;52.018;5.576;2024-02-26T00:45:15;5.60;87.10
67820;DHT22;54618;52.018;5.576;2024-02-26T00:47:42;5.60;87.10
67820;DHT22;54618;52.018;5.576;2024-02-26T00:50:08;5.60;87.10
67820;DHT22;54618;52.018;5.576;2024-02-26T00:52:34;5.60;88.10
67820;DHT22;54618;52.018;5.576;2024-02-26T00:55:00;5.60;87.10
67820;DHT22;54618;52.018;5.576;2024-02-26T00:57:28;5.60;87.20
67820;DHT22;54618;52.018;5.576;2024-02-26T00:59:54;5.60;87.40
67820;DHT22;54618;52.018;5.576;2024-02-26T01:02:22;5.60;87.60
67820;DHT22;54618;52.018;5.576;2024-02-26T01:04:48;5.60;87.30
67820;DHT22;54618;52.018;5.576;2024-02-26T01:07:13;5.70;87.20
67820;DHT22;54618;52.018;5.576;2024-02-26T01:09:39;5.70;86.80
67820;DHT22;54618;52.018;5.576;2024-02-26T01:12:05;5.70;86.90
67820;DHT22;54618;52.018;5.576;2024-02-26T01:14:31;5.70;87.30
67820;DHT22;54618;52.018;5.576;2024-02-26T01:16:59;5.70;87.00
67820;DHT22;54618;52.018;5.576;2024-02-26T01:19:28;5.70;87.00
67820;DHT22;54618;52.018;5.576;2024-02-26T01:21:54;5.70;87.30
67820;DHT22;54618;52.018;5.576;2024-02-26T01:24:19;5.70;87.00
67820;DHT22;54618;52.018;5.576;2024-02-26T01:26:45;5.60;87.10
67820;DHT22;54618;52.018;5.576;2024-02-26T01:29:10;5.70;87.30
67820;DHT22;54618;52.018;5.576;2024-02-26T01:31:36;5.70;86.90
67820;DHT22;54618;52.018;5.576;2024-02-26T01:34:01;5.60;87.20
67820;DHT22;54618;52.018;5.576;2024-02-26T01:36:30;5.60;87.20
67820;DHT22;54618;52.018;5.576;2024-02-26T01:38:58;5.60;86.90
67820;DHT22;54618;52.018;5.576;2024-02-26T01:41:24;5.60;87.10
67820;DHT22;54618;52.018;5.576;2024-02-26T01:43:50;5.60;87.10
67820;DHT22;54618;52.018;5.576;2024-02-26T01:46:16;5.60;87.20
67820;DHT22;54618;52.018;5.576;2024-02-26T01:48:43;5.60;86.90
67820;DHT22;54618;52.018;5.576;2024-02-26T01:51:10;5.60;87.10
67820;DHT22;54618;52.018;5.576;2024-02-26T01:53:38;5.60;87.20
67820;DHT22;54618;52.018;5.576;2024-02-26T01:56:04;5.60;86.90
67820;DHT22;54618;52.018;5.576;2024-02-26T01:58:30;5.60;87.30
67820;DHT22;54618;52.018;5.576;2024-02-26T02:00:57;5.70;87.30
67820;DHT22;54618;52.018;5.576;2024-02-26T02:03:23;5.60;87.20
67820;DHT22;54618;52.018;5.576;2024-02-26T02:05:49;5.60;87.30
67820;DHT22;54618;52.018;5.576;2024-02-26T02:08:14;5.70;87.50
67820;DHT22;54618;52.018;5.576;2024-02-26T02:10:42;5.70;87.30
67820;DHT22;54618;52.018;5.576;2024-02-26T02:13:07;5.70;87.20
67820;DHT22;54618;52.018;5.576;2024-02-26T02:15:33;5.70;87.30
67820;DHT22;54618;52.018;5.576;2024-02-26T02:17:59;5.70;87.40
67820;DHT22;54618;52.018;5.576;2024-02-26T02:20:32;5.70;87.10
67820;DHT22;54618;52.018;5.576;2024-02-26T02:23:01;5.70;87.60
67820;DHT22;54618;52.018;5.576;2024-02-26T02:25:29;5.70;87.20
67820;DHT22;54618;52.018;5.576;2024-02-26T02:27:58;5.70;87.20
67820;DHT22;54618;52.018;5.576;2024-02-26T02:30:26;5.70;87.20
67820;DHT22;54618;52.018;5.576;2024-02-26T02:32:53;5.70;87.40
67820;DHT22;54618;52.018;5.576;2024-02-26T02:35:19;5.70;87.30
67820;DHT22;54618;52.018;5.576;2024-02-26T02:37:45;5.70;87.20
67820;DHT22;54618;52.018;5.576;2024-02-26T02:40:10;5.80;87.20
67820;DHT22;54618;52.018;5.576;2024-02-26T02:42:36;5.80;87.20
67820;DHT22;54618;52.018;5.576;2024-02-26T02:45:02;5.70;87.20
67820;DHT22;54618;52.018;5.576;2024-02-26T02:47:27;5.70;87.30
67820;DHT22;54618;52.018;5.576;2024-02-26T02:49:53;5.70;87.40
67820;DHT22;54618;52.018;5.576;2024-02-26T02:52:18;5.70;87.30
67820;DHT22;54618;52.018;5.576;2024-02-26T02:54:44;5.70;87.50
67820;DHT22;54618;52.018;5.576;2024-02-26T02:57:09;5.70;87.40
67820;DHT22;54618;52.018;5.576;2024-02-26T02:59:36;5.70;87.50
67820;DHT22;54618;52.018;5.576;2024-02-26T03:02:02;5.70;87.50
67820;DHT22;54618;52.018;5.576;2024-02-26T03:04:27;5.70;87.30
67820;DHT22;54618;52.018;5.576;2024-02-26T03:06:55;5.70;87.40
67820;DHT22;54618;52.018;5.576;2024-02-26T03:09:20;5.70;87.20
67820;DHT22;54618;52.018;5.576;2024-02-26T03:11:46;5.70;87.20
67820;DHT22;54618;52.018;5.576;2024-02-26T03:14:11;5.70;87.20
67820;DHT22;54618;52.018;5.576;2024-02-26T03:16:37;5.70;87.20
67820;DHT22;54618;52.018;5.576;2024-02-26T03:19:03;5.70;87.30
67820;DHT22;54618;52.018;5.576;2024-02-26T03:21:28;5.70;87.30
67820;DHT22;54618;52.018;5.576;2024-02-26T03:23:54;5.70;87.30
67820;DHT22;54618;52.018;5.576;2024-02-26T03:26:20;5.70;87.20
67820;DHT22;54618;52.018;5.576;2024-02-26T03:28:47;5.70;87.30
67820;DHT22;54618;52.018;5.576;2024-02-26T03:31:12;5.70;87.20
67820;DHT22;54618;52.018;5.576;2024-02-26T03:33:38;5.70;87.10
67820;DHT22;54618;52.018;5.576;2024-02-26T03:36:04;5.70;87.00
67820;DHT22;54618;52.018;5.576;2024-02-26T03:38:30;5.70;87.00
67820;DHT22;54618;52.018;5.576;2024-02-26T03:40:59;5.70;87.10
67820;DHT22;54618;52.018;5.576;2024-02-26T03:43:25;5.70;87.20
67820;DHT22;54618;52.018;5.576;2024-02-26T03:45:50;5.80;87.00
67820;DHT22;54618;52.018;5.576;2024-02-26T03:48:16;5.80;86.90
67820;DHT22;54618;52.018;5.576;2024-02-26T03:50:42;5.80;86.90
67820;DHT22;54618;52.018;5.576;2024-02-26T03:53:07;5.80;87.00
67820;DHT22;54618;52.018;5.576;2024-02-26T03:55:34;5.70;86.80
67820;DHT22;54618;52.018;5.576;2024-02-26T03:58:00;5.80;86.80
67820;DHT22;54618;52.018;5.576;2024-02-26T04:00:26;5.70;86.90
67820;DHT22;54618;52.018;5.576;2024-02-26T04:02:54;5.70;87.10
67820;DHT22;54618;52.018;5.576;2024-02-26T04:05:20;5.70;87.30
67820;DHT22;54618;52.018;5.576;2024-02-26T04:07:45;5.60;87.40
67820;DHT22;54618;52.018;5.576;2024-02-26T04:10:11;5.60;87.20
67820;DHT22;54618;52.018;5.576;2024-02-26T04:12:41;5.60;87.60
67820;DHT22;54618;52.018;5.576;2024-02-26T04:15:08;5.60;87.60
67820;DHT22;54618;52.018;5.576;2024-02-26T04:17:34;5.60;87.50
67820;DHT22;54618;52.018;5.576;2024-02-26T04:20:00;5.60;87.60
67820;DHT22;54618;52.018;5.576;2024-02-26T04:22:26;5.60;87.60
67820;DHT22;54618;52.018;5.576;2024-02-26T04:24:52;5.60;88.10
67820;DHT22;54618;52.018;5.576;2024-02-26T04:27:18;5.60;87.90
67820;DHT22;54618;52.018;5.576;2024-02-26T04:29:43;5.60;87.70
67820;DHT22;54618;52.018;5.576;2024-02-26T04:32:09;5.60;87.60
67820;DHT22;54618;52.018;5.576;2024-02-26T04:34:34;5.50;87.50
67820;DHT22;54618;52.018;5.576;2024-02-26T04:37:00;5.50;87.30
67820;DHT22;54618;52.018;5.576;2024-02-26T04:39:26;5.60;87.50
67820;DHT22;54618;52.018;5.576;2024-02-26T04:41:51;5.50;87.50
67820;DHT22;54618;52.018;5.576;2024-02-26T04:44:17;5.60;87.70
67820;DHT22;54618;52.018;5.576;2024-02-26T04:46:42;5.50;88.20
67820;DHT22;54618;52.018;5.576;2024-02-26T04:49:09;5.50;87.50
67820;DHT22;54618;52.018;5.576;2024-02-26T04:51:34;5.50;87.90
67820;DHT22;54618;52.018;5.576;2024-02-26T04:54:00;5.50;87.60
67820;DHT22;54618;52.018;5.576;2024-02-26T04:56:25;5.50;87.90
67820;DHT22;54618;52.018;5.576;2024-02-26T04:58:51;5.50;88.00
67820;DHT22;54618;52.018;5.576;2024-02-26T05:01:18;5.50;87.70
67820;DHT22;54618;52.018;5.576;2024-02-26T05:03:44;5.50;88.00
67820;DHT22;54618;52.018;5.576;2024-02-26T05:06:09;5.50;88.10
67820;DHT22;54618;52.018;5.576;2024-02-26T05:08:35;5.50;87.70
67820;DHT22;54618;52.018;5.576;2024-02-26T05:11:04;5.60;87.80
67820;DHT22;54618;52.018;5.576;2024-02-26T05:13:31;5.60;87.60
67820;DHT22;54618;52.018;5.576;2024-02-26T05:15:57;5.60;87.30
67820;DHT22;54618;52.018;5.576;2024-02-26T05:18:24;5.60;87.60
67820;DHT22;54618;52.018;5.576;2024-02-26T05:20:50;5.60;87.80
67820;DHT22;54618;52.018;5.576;2024-02-26T05:23:15;5.60;87.90
67820;DHT22;54618;52.018;5.576;2024-02-26T05:25:41;5.60;87.60
67820;DHT22;54618;52.018;5.576;2024-02-26T05:28:07;5.60;87.90
67820;DHT22;54618;52.018;5.576;2024-02-26T05:30:32;5.60;87.70
67820;DHT22;54618;52.018;5.576;2024-02-26T05:32:58;5.60;87.60
67820;DHT22;54618;52.018;5.576;2024-02-26T05:35:25;5.60;87.70
67820;DHT22;54618;52.018;5.576;2024-02-26T05:37:51;5.60;87.40
67820;DHT22;54618;52.018;5.576;2024-02-26T05:40:17;5.60;87.90
67820;DHT22;54618;52.018;5.576;2024-02-26T05:42:42;5.60;87.20
67820;DHT22;54618;52.018;5.576;2024-02-26T05:45:10;5.60;87.20
67820;DHT22;54618;52.018;5.576;2024-02-26T05:47:36;5.60;87.40
67820;DHT22;54618;52.018;5.576;2024-02-26T05:50:02;5.60;87.50
67820;DHT22;54618;52.018;5.576;2024-02-26T05:52:28;5.60;87.70
67820;DHT22;54618;52.018;5.576;2024-02-26T05:54:58;5.60;88.20
67820;DHT22;54618;52.018;5.576;2024-02-26T05:57:23;5.70;87.30
67820;DHT22;54618;52.018;5.576;2024-02-26T05:59:49;5.70;87.60
67820;DHT22;54618;52.018;5.576;2024-02-26T06:02:15;5.70;87.10
67820;DHT22;54618;52.018;5.576;2024-02-26T06:04:40;5.70;87.60
67820;DHT22;54618;52.018;5.576;2024-02-26T06:07:06;5.70;87.30
67820;DHT22;54618;52.018;5.576;2024-02-26T06:09:32;5.70;87.50
67820;DHT22;54618;52.018;5.576;2024-02-26T06:12:01;5.70;87.70
67820;DHT22;54618;52.018;5.576;2024-02-26T06:14:29;5.70;88.40
67820;DHT22;54618;52.018;5.576;2024-02-26T06:16:55;5.70;88.00
67820;DHT22;54618;52.018;5.576;2024-02-26T06:19:20;5.70;87.70
67820;DHT22;54618;52.018;5.576;2024-02-26T06:21:46;5.70;87.70
67820;DHT22;54618;52.018;5.576;2024-02-26T06:24:11;5.70;87.80
67820;DHT22;54618;52.018;5.576;2024-02-26T06:26:37;5.70;87.80
67820;DHT22;54618;52.018;5.576;2024-02-26T06:29:02;5.60;88.10
67820;DHT22;54618;52.018;5.576;2024-02-26T06:31:28;5.70;88.10
67820;DHT22;54618;52.018;5.576;2024-02-26T06:33:54;5.70;87.70
67820;DHT22;54618;52.018;5.576;2024-02-26T06:36:21;5.70;87.40
67820;DHT22;54618;52.018;5.576;2024-02-26T06:38:47;5.70;87.50
67820;DHT22;54618;52.018;5.576;2024-02-26T06:41:12;5.70;87.40
67820;DHT22;54618;52.018;5.576;2024-02-26T06:43:38;5.70;87.40
67820;DHT22;54618;52.018;5.576;2024-02-26T06:46:03;5.70;88.30
67820;DHT22;54618;52.018;5.576;2024-02-26T06:48:30;5.70;87.90
67820;DHT22;54618;52.018;5.576;2024-02-26T06:50:59;5.70;88.00
67820;DHT22;54618;52.018;5.576;2024-02-26T06:53:24;5.70;87.90
67820;DHT22;54618;52.018;5.576;2024-02-26T06:55:51;5.70;87.70
67820;DHT22;54618;52.018;5.576;2024-02-26T06:58:17;5.70;87.60
67820;DHT22;54618;52.018;5.576;2024-02-26T07:00:42;5.70;87.70
67820;DHT22;54618;52.018;5.576;2024-02-26T07:03:08;5.70;87.50
67820;DHT22;54618;52.018;5.576;2024-02-26T07:05:34;5.70;87.70
67820;DHT22;54618;52.018;5.576;2024-02-26T07:07:59;5.70;88.10
67820;DHT22;54618;52.018;5.576;2024-02-26T07:10:25;5.70;88.20
67820;DHT22;54618;52.018;5.576;2024-02-26T07:12:50;5.70;88.30
67820;DHT22;54618;52.018;5.576;2024-02-26T07:15:16;5.70;87.60
67820;DHT22;54618;52.018;5.576;2024-02-26T07:17:41;5.70;88.30
67820;DHT22;54618;52.018;5.576;2024-02-26T07:20:12;5.60;89.10
67820;DHT22;54618;52.018;5.576;2024-02-26T07:22:38;5.60;88.00
67820;DHT22;54618;52.018;5.576;2024-02-26T07:25:04;5.60;88.50
67820;DHT22;54618;52.018;5.576;2024-02-26T07:27:29;5.60;88.90
67820;DHT22;54618;52.018;5.576;2024-02-26T07:29:55;5.60;88.50
67820;DHT22;54618;52.018;5.576;2024-02-26T07:32:20;5.60;88.90
67820;DHT22;54618;52.018;5.576;2024-02-26T07:34:47;5.60;89.30
67820;DHT22;54618;52.018;5.576;2024-02-26T07:37:13;5.60;88.80
67820;DHT22;54618;52.018;5.576;2024-02-26T07:39:38;5.70;88.80
67820;DHT22;54618;52.018;5.576;2024-02-26T07:42:04;5.70;88.40
67820;DHT22;54618;52.018;5.576;2024-02-26T07:44:30;5.70;88.60
67820;DHT22;54618;52.018;5.576;2024-02-26T07:46:55;5.70;88.50
67820;DHT22;54618;52.018;5.576;2024-02-26T07:49:21;5.70;88.90
67820;DHT22;54618;52.018;5.576;2024-02-26T07:51:47;5.70;90.00
67820;DHT22;54618;52.018;5.576;2024-02-26T07:54:12;5.70;90.20
67820;DHT22;54618;52.018;5.576;2024-02-26T07:56:38;5.70;89.70
67820;DHT22;54618;52.018;5.576;2024-02-26T07:59:04;5.70;89.80
67820;DHT22;54618;52.018;5.576;2024-02-26T08:01:29;5.70;89.30
67820;DHT22;54618;52.018;5.576;2024-02-26T08:03:55;5.70;89.70
67820;DHT22;54618;52.018;5.576;2024-02-26T08:06:21;5.70;90.00
67820;DHT22;54618;52.018;5.576;2024-02-26T08:08:46;5.70;89.70
67820;DHT22;54618;52.018;5.576;2024-02-26T08:11:14;5.70;90.00
67820;DHT22;54618;52.018;5.576;2024-02-26T08:13:41;5.70;89.40
67820;DHT22;54618;52.018;5.576;2024-02-26T08:16:07;5.70;89.10
67820;DHT22;54618;52.018;5.576;2024-02-26T08:18:32;5.70;89.20
67820;DHT22;54618;52.018;5.576;2024-02-26T08:21:01;5.70;89.70
67820;DHT22;54618;52.018;5.576;2024-02-26T08:23:29;5.70;90.40
67820;DHT22;54618;52.018;5.576;2024-02-26T08:25:59;5.70;90.10
67820;DHT22;54618;52.018;5.576;2024-02-26T08:28:24;5.70;90.30
67820;DHT22;54618;52.018;5.576;2024-02-26T08:30:50;5.70;90.00
67820;DHT22;54618;52.018;5.576;2024-02-26T08:33:16;5.70;89.90
67820;DHT22;54618;52.018;5.576;2024-02-26T08:35:41;5.70;90.60
67820;DHT22;54618;52.018;5.576;2024-02-26T08:38:07;5.70;90.00
67820;DHT22;54618;52.018;5.576;2024-02-26T08:40:32;5.70;90.60
67820;DHT22;54618;52.018;5.576;2024-02-26T08:42:58;5.80;90.00
67820;DHT22;54618;52.018;5.576;2024-02-26T08:45:23;5.80;89.80
67820;DHT22;54618;52.018;5.576;2024-02-26T08:47:49;5.80;90.60
67820;DHT22;54618;52.018;5.576;2024-02-26T08:50:15;5.70;90.10
67820;DHT22;54618;52.018;5.576;2024-02-26T08:52:41;5.70;91.00
67820;DHT22;54618;52.018;5.576;2024-02-26T08:55:07;5.70;90.80
67820;DHT22;54618;52.018;5.576;2024-02-26T08:57:34;5.70;90.70
67820;DHT22;54618;52.018;5.576;2024-02-26T09:00:00;5.70;90.80
67820;DHT22;54618;52.018;5.576;2024-02-26T09:02:26;5.80;91.10
67820;DHT22;54618;52.018;5.576;2024-02-26T09:04:52;5.80;91.00
67820;DHT22;54618;52.018;5.576;2024-02-26T09:07:20;5.80;90.80
67820;DHT22;54618;52.018;5.576;2024-02-26T09:09:46;5.80;91.30
67820;DHT22;54618;52.018;5.576;2024-02-26T09:12:12;5.70;91.50
67820;DHT22;54618;52.018;5.576;2024-02-26T09:14:37;5.80;91.10
67820;DHT22;54618;52.018;5.576;2024-02-26T09:17:03;5.80;90.50
67820;DHT22;54618;52.018;5.576;2024-02-26T09:19:29;5.80;91.20
67820;DHT22;54618;52.018;5.576;2024-02-26T09:21:54;5.80;90.90
67820;DHT22;54618;52.018;5.576;2024-02-26T09:24:24;5.80;90.80
67820;DHT22;54618;52.018;5.576;2024-02-26T09:26:50;5.90;91.20
67820;DHT22;54618;52.018;5.576;2024-02-26T09:29:15;5.90;91.10
67820;DHT22;54618;52.018;5.576;2024-02-26T09:31:41;5.90;91.50
67820;DHT22;54618;52.018;5.576;2024-02-26T09:34:07;5.80;91.00
67820;DHT22;54618;52.018;5.576;2024-02-26T09:36:33;5.80;91.50
67820;DHT22;54618;52.018;5.576;2024-02-26T09:38:59;5.90;91.40
67820;DHT22;54618;52.018;5.576;2024-02-26T09:41:30;5.90;90.80
67820;DHT22;54618;52.018;5.576;2024-02-26T09:44:00;5.90;90.80
67820;DHT22;54618;52.018;5.576;2024-02-26T09:46:28;5.90;90.80
67820;DHT22;54618;52.018;5.576;2024-02-26T09:48:54;5.90;90.50
67820;DHT22;54618;52.018;5.576;2024-02-26T09:51:23;5.90;90.30
67820;DHT22;54618;52.018;5.576;2024-02-26T09:53:54;5.90;90.30
67820;DHT22;54618;52.018;5.576;2024-02-26T09:56:24;5.90;90.70
67820;DHT22;54618;52.018;5.576;2024-02-26T09:58:52;5.90;91.00
67820;DHT22;54618;52.018;5.576;2024-02-26T10:01:20;5.90;90.70
67820;DHT22;54618;52.018;5.576;2024-02-26T10:03:51;5.90;90.80
67820;DHT22;54618;52.018;5.576;2024-02-26T10:06:17;5.90;91.00
67820;DHT22;54618;52.018;5.576;2024-02-26T10:08:43;5.90;90.60
67820;DHT22;54618;52.018;5.576;2024-02-26T10:11:10;5.90;91.10
67820;DHT22;54618;52.018;5.576;2024-02-26T10:13:36;5.90;91.20
67820;DHT22;54618;52.018;5.576;2024-02-26T10:16:02;5.90;91.20
67820;DHT22;54618;52.018;5.576;2024-02-26T10:18:53;5.90;91.80
67820;DHT22;54618;52.018;5.576;2024-02-26T10:21:20;5.90;92.30
67820;DHT22;54618;52.018;5.576;2024-02-26T10:23:46;5.90;91.40
67820;DHT22;54618;52.018;5.576;2024-02-26T10:26:20;5.90;91.20
67820;DHT22;54618;52.018;5.576;2024-02-26T10:28:46;5.90;91.10
67820;DHT22;54618;52.018;5.576;2024-02-26T10:31:13;5.90;91.10
67820;DHT22;54618;52.018;5.576;2024-02-26T10:33:40;5.90;91.30
67820;DHT22;54618;52.018;5.576;2024-02-26T10:36:07;6.00;91.10
67820;DHT22;54618;52.018;5.576;2024-02-26T10:38:34;6.00;91.80
67820;DHT22;54618;52.018;5.576;2024-02-26T10:41:01;6.00;91.50
67820;DHT22;54618;52.018;5.576;2024-02-26T10:43:28;6.00;91.60
67820;DHT22;54618;52.018;5.576;2024-02-26T10:46:00;6.00;91.90
67820;DHT22;54618;52.018;5.576;2024-02-26T10:48:25;6.00;91.60
67820;DHT22;54618;52.018;5.576;2024-02-26T10:50:54;6.00;91.60
67820;DHT22;54618;52.018;5.576;2024-02-26T10:53:22;6.00;91.00
67820;DHT22;54618;52.018;5.576;2024-02-26T10:56:02;6.00;91.90
67820;DHT22;54618;52.018;5.576;2024-02-26T10:58:29;6.00;92.70
67820;DHT22;54618;52.018;5.576;2024-02-26T11:00:59;6.10;91.40
67820;DHT22;54618;52.018;5.576;2024-02-26T11:03:25;6.10;91.50
67820;DHT22;54618;52.018;5.576;2024-02-26T11:05:52;6.10;91.10
67820;DHT22;54618;52.018;5.576;2024-02-26T11:08:19;6.10;91.00
67820;DHT22;54618;52.018;5.576;2024-02-26T11:10:52;6.10;91.60
67820;DHT22;54618;52.018;5.576;2024-02-26T11:13:18;6.10;91.60
67820;DHT22;54618;52.018;5.576;2024-02-26T11:15:46;6.10;92.20
67820;DHT22;54618;52.018;5.576;2024-02-26T11:18:15;6.20;91.80
67820;DHT22;54618;52.018;5.576;2024-02-26T11:20:41;6.20;92.00
67820;DHT22;54618;52.018;5.576;2024-02-26T11:23:07;6.20;91.90
67820;DHT22;54618;52.018;5.576;2024-02-26T11:25:35;6.20;92.20
67820;DHT22;54618;52.018;5.576;2024-02-26T11:28:04;6.20;91.30
67820;DHT22;54618;52.018;5.576;2024-02-26T11:30:34;6.20;92.40
67820;DHT22;54618;52.018;5.576;2024-02-26T11:33:01;6.20;91.20
67820;DHT22;54618;52.018;5.576;2024-02-26T11:35:30;6.20;91.50
67820;DHT22;54618;52.018;5.576;2024-02-26T11:37:59;6.20;91.60
67820;DHT22;54618;52.018;5.576;2024-02-26T11:40:29;6.20;91.40
67820;DHT22;54618;52.018;5.576;2024-02-26T11:42:57;6.20;91.40
67820;DHT22;54618;52.018;5.576;2024-02-26T11:48:23;6.20;92.20
67820;DHT22;54618;52.018;5.576;2024-02-26T11:50:52;6.20;92.10
67820;DHT22;54618;52.018;5.576;2024-02-26T11:58:45;6.20;93.00
67820;DHT22;54618;52.018;5.576;2024-02-26T12:01:39;6.20;91.40
67820;DHT22;54618;52.018;5.576;2024-02-26T12:04:07;6.20;91.50
67820;DHT22;54618;52.018;5.576;2024-02-26T12:07:12;6.20;91.40
67820;DHT22;54618;52.018;5.576;2024-02-26T12:09:41;6.20;91.20
67820;DHT22;54618;52.018;5.576;2024-02-26T12:12:08;6.30;91.90
67820;DHT22;54618;52.018;5.576;2024-02-26T12:14:38;6.30;91.80
67820;DHT22;54618;52.018;5.576;2024-02-26T12:17:04;6.30;91.60
67820;DHT22;54618;52.018;5.576;2024-02-26T12:19:34;6.30;91.30
67820;DHT22;54618;52.018;5.576;2024-02-26T12:22:00;6.30;91.50
67820;DHT22;54618;52.018;5.576;2024-02-26T12:24:26;6.30;91.20
67820;DHT22;54618;52.018;5.576;2024-02-26T12:26:51;6.30;91.40
67820;DHT22;54618;52.018;5.576;2024-02-26T12:29:17;6.30;91.50
67820;DHT22;54618;52.018;5.576;2024-02-26T12:31:43;6.30;91.20
67820;DHT22;54618;52.018;5.576;2024-02-26T12:34:08;6.30;91.80
67820;DHT22;54618;52.018;5.576;2024-02-26T12:36:37;6.30;91.60
67820;DHT22;54618;52.018;5.576;2024-02-26T12:39:04;6.40;92.20
67820;DHT22;54618;52.018;5.576;2024-02-26T12:41:33;6.40;91.60
67820;DHT22;54618;52.018;5.576;2024-02-26T12:43:59;6.40;91.50
67820;DHT22;54618;52.018;5.576;2024-02-26T12:46:25;6.40;91.40
67820;DHT22;54618;52.018;5.576;2024-02-26T12:48:51;6.40;91.70
67820;DHT22;54618;52.018;5.576;2024-02-26T12:51:17;6.40;91.40
67820;DHT22;54618;52.018;5.576;2024-02-26T12:53:45;6.40;91.50
67820;DHT22;54618;52.018;5.576;2024-02-26T12:56:11;6.40;91.30
67820;DHT22;54618;52.018;5.576;2024-02-26T12:58:40;6.40;91.50
67820;DHT22;54618;52.018;5.576;2024-02-26T13:01:06;6.40;91.70
67820;DHT22;54618;52.018;5.576;2024-02-26T13:03:36;6.50;91.40
67820;DHT22;54618;52.018;5.576;2024-02-26T13:06:02;6.50;91.30
67820;DHT22;54618;52.018;5.576;2024-02-26T13:08:28;6.50;91.20
67820;DHT22;54618;52.018;5.576;2024-02-26T13:10:54;6.50;91.10
67820;DHT22;54618;52.018;5.576;2024-02-26T13:13:20;6.60;91.20
67820;DHT22;54618;52.018;5.576;2024-02-26T13:15:45;6.60;91.10
67820;DHT22;54618;52.018;5.576;2024-02-26T13:18:15;6.60;91.20
67820;DHT22;54618;52.018;5.576;2024-02-26T13:20:42;6.60;91.30
67820;DHT22;54618;52.018;5.576;2024-02-26T13:23:12;6.60;91.00
67820;DHT22;54618;52.018;5.576;2024-02-26T13:25:38;6.60;91.20
67820;DHT22;54618;52.018;5.576;2024-02-26T13:28:14;6.60;91.20
67820;DHT22;54618;52.018;5.576;2024-02-26T13:30:41;6.70;91.20
67820;DHT22;54618;52.018;5.576;2024-02-26T13:33:11;6.70;91.10
67820;DHT22;54618;52.018;5.576;2024-02-26T13:35:37;6.70;91.20
67820;DHT22;54618;52.018;5.576;2024-02-26T13:38:04;6.70;91.20
67820;DHT22;54618;52.018;5.576;2024-02-26T13:40:31;6.70;91.00
67820;DHT22;54618;52.018;5.576;2024-02-26T13:42:56;6.70;90.90
67820;DHT22;54618;52.018;5.576;2024-02-26T13:45:22;6.70;91.10
67820;DHT22;54618;52.018;5.576;2024-02-26T13:47:48;6.70;91.00
67820;DHT22;54618;52.018;5.576;2024-02-26T13:50:13;6.70;91.00
67820;DHT22;54618;52.018;5.576;2024-02-26T13:52:39;6.70;91.00
67820;DHT22;54618;52.018;5.576;2024-02-26T13:55:05;6.70;91.00
67820;DHT22;54618;52.018;5.576;2024-02-26T13:57:31;6.80;90.90
67820;DHT22;54618;52.018;5.576;2024-02-26T13:59:56;6.80;91.00
67820;DHT22;54618;52.018;5.576;2024-02-26T14:02:22;6.80;91.30
67820;DHT22;54618;52.018;5.576;2024-02-26T14:04:48;6.80;91.10
67820;DHT22;54618;52.018;5.576;2024-02-26T14:07:13;6.90;90.80
67820;DHT22;54618;52.018;5.576;2024-02-26T14:09:39;6.90;90.90
67820;DHT22;54618;52.018;5.576;2024-02-26T14:12:05;6.90;90.80
67820;DHT22;54618;52.018;5.576;2024-02-26T14:14:31;7.00;90.70
67820;DHT22;54618;52.018;5.576;2024-02-26T14:17:00;7.00;90.60
67820;DHT22;54618;52.018;5.576;2024-02-26T14:19:26;6.90;90.60
67820;DHT22;54618;52.018;5.576;2024-02-26T14:21:52;6.90;90.60
67820;DHT22;54618;52.018;5.576;2024-02-26T14:24:18;7.00;90.60
67820;DHT22;54618;52.018;5.576;2024-02-26T14:26:43;7.00;90.80
67820;DHT22;54618;52.018;5.576;2024-02-26T14:29:09;7.00;90.70
67820;DHT22;54618;52.018;5.576;2024-02-26T14:31:34;7.10;90.70
67820;DHT22;54618;52.018;5.576;2024-02-26T14:34:00;7.10;90.70
67820;DHT22;54618;52.018;5.576;2024-02-26T14:36:26;7.10;90.60
67820;DHT22;54618;52.018;5.576;2024-02-26T14:38:52;7.10;90.60
67820;DHT22;54618;52.018;5.576;2024-02-26T14:41:17;7.10;90.60
67820;DHT22;54618;52.018;5.576;2024-02-26T14:43:43;7.20;90.60
67820;DHT22;54618;52.018;5.576;2024-02-26T14:46:08;7.20;90.50
67820;DHT22;54618;52.018;5.576;2024-02-26T14:48:34;7.20;90.50
67820;DHT22;54618;52.018;5.576;2024-02-26T14:51:00;7.20;90.40
67820;DHT22;54618;52.018;5.576;2024-02-26T14:53:26;7.20;90.50
67820;DHT22;54618;52.018;5.576;2024-02-26T14:55:52;7.10;90.30
67820;DHT22;54618;52.018;5.576;2024-02-26T14:58:17;7.10;90.40
67820;DHT22;54618;52.018;5.576;2024-02-26T15:00:43;7.10;90.20
67820;DHT22;54618;52.018;5.576;2024-02-26T15:03:09;7.10;90.50
67820;DHT22;54618;52.018;5.576;2024-02-26T15:05:35;7.10;90.50
67820;DHT22;54618;52.018;5.576;2024-02-26T15:08:01;7.10;90.40
67820;DHT22;54618;52.018;5.576;2024-02-26T15:10:28;7.10;90.50
67820;DHT22;54618;52.018;5.576;2024-02-26T15:12:54;7.10;90.50
67820;DHT22;54618;52.018;5.576;2024-02-26T15:15:23;7.10;90.50
67820;DHT22;54618;52.018;5.576;2024-02-26T15:17:49;7.10;90.50
67820;DHT22;54618;52.018;5.576;2024-02-26T15:20:16;7.10;90.40
67820;DHT22;54618;52.018;5.576;2024-02-26T15:22:42;7.10;90.40
67820;DHT22;54618;52.018;5.576;2024-02-26T15:25:08;7.10;90.40
67820;DHT22;54618;52.018;5.576;2024-02-26T15:27:34;7.10;90.40
67820;DHT22;54618;52.018;5.576;2024-02-26T15:30:03;7.10;90.20
67820;DHT22;54618;52.018;5.576;2024-02-26T15:32:29;7.00;90.10
67820;DHT22;54618;52.018;5.576;2024-02-26T15:34:55;7.00;90.00
67820;DHT22;54618;52.018;5.576;2024-02-26T15:37:21;7.00;90.20
67820;DHT22;54618;52.018;5.576;2024-02-26T15:39:47;7.10;90.20
67820;DHT22;54618;52.018;5.576;2024-02-26T15:42:15;7.00;90.10
67820;DHT22;54618;52.018;5.576;2024-02-26T15:44:41;7.00;90.20
67820;DHT22;54618;52.018;5.576;2024-02-26T15:47:07;7.00;90.00
67820;DHT22;54618;52.018;5.576;2024-02-26T15:49:33;7.00;90.20